Time;durP1;ratioP1;P1;durP2;ratioP2;P2;SDS_P1;SDS_P2;PMS_P1;PMS_P2;Temp;Humidity;BMP_temperature;BMP_pressure;BME280_temperature;BME280_humidity;BME280_pressure;Samples;Min_cycle;Max_cycle;Signal;HPM_P1;HPM_P2
2022/09/08 00:02:24;;;;;;;22.17;17.80;;;21.90;85.20;;;;;;5117365;28;20031;-13
2022/09/08 00:04:51;;;;;;;27.67;21.70;;;21.90;85.10;;;;;;5117335;28;20363;-14
2022/09/08 00:07:18;;;;;;;20.70;17.58;;;21.90;85.40;;;;;;5117545;28;20069;-15
2022/09/08 00:09:44;;;;;;;21.17;16.40;;;21.90;85.20;;;;;;5116820;28;20047;-14
2022/09/08 00:12:12;;;;;;;24.25;20.15;;;21.80;85.10;;;;;;5117473;28;20406;-14
2022/09/08 00:14:38;;;;;;;25.17;19.10;;;21.80;85.40;;;;;;5117026;28;20035;-14
2022/09/08 00:17:04;;;;;;;25.77;18.23;;;21.80;85.40;;;;;;5115490;28;20118;-14
2022/09/08 00:19:30;;;;;;;20.92;16.17;;;21.80;85.20;;;;;;5117079;28;20107;-13
2022/09/08 00:21:56;;;;;;;29.85;22.02;;;21.80;85.40;;;;;;5117187;28;20020;-14
2022/09/08 00:24:22;;;;;;;24.25;17.00;;;21.80;85.90;;;;;;5117179;28;20073;-14
2022/09/08 00:26:49;;;;;;;26.50;20.38;;;21.80;85.40;;;;;;5116628;28;20024;-14
2022/09/08 00:29:15;;;;;;;21.38;17.33;;;21.80;85.40;;;;;;5115628;28;20023;-14
2022/09/08 00:31:41;;;;;;;26.10;19.73;;;21.80;85.40;;;;;;5116696;28;20038;-14
2022/09/08 00:34:07;;;;;;;22.90;17.30;;;21.80;85.80;;;;;;5117045;28;20028;-14
2022/09/08 00:36:33;;;;;;;20.58;16.52;;;21.80;85.50;;;;;;5116944;28;20031;-14
2022/09/08 00:39:00;;;;;;;23.83;17.55;;;21.80;85.60;;;;;;5116446;28;20031;-16
2022/09/08 00:41:28;;;;;;;21.85;16.27;;;21.70;85.60;;;;;;5116836;28;20024;-15
2022/09/08 00:44:00;;;;;;;21.50;15.63;;;21.70;85.50;;;;;;5117185;28;20031;-13
2022/09/08 00:46:35;;;;;;;16.63;14.80;;;21.70;85.70;;;;;;5116889;28;20028;-13
2022/09/08 00:49:21;;;;;;;18.10;13.73;;;21.60;85.70;;;;;;5116583;28;20058;-14
2022/09/08 00:51:55;;;;;;;15.40;11.98;;;21.70;85.50;;;;;;5116933;28;20407;-13
2022/09/08 00:54:21;;;;;;;;;;;21.70;85.20;;;;;;5116847;28;20510;-14
2022/09/08 00:56:49;;;;;;;16.05;12.70;;;21.70;86.30;;;;;;5116520;28;19912;-14
2022/09/08 00:59:18;;;;;;;31.35;19.98;;;21.70;85.50;;;;;;5116147;28;20107;-14
2022/09/08 01:01:45;;;;;;;18.90;15.02;;;21.60;86.10;;;;;;5116174;28;20433;-13
2022/09/08 01:04:11;;;;;;;20.98;15.57;;;21.60;85.30;;;;;;5116520;28;20106;-15
2022/09/08 01:12:58;;;;;;;22.73;16.42;;;21.70;85.60;;;;;;5116060;28;20080;-14
2022/09/08 01:15:27;;;;;;;18.83;14.45;;;21.70;85.70;;;;;;5115898;28;20020;-13
2022/09/08 01:17:54;;;;;;;19.38;15.50;;;21.70;85.60;;;;;;5115874;28;20019;-13
2022/09/08 01:20:27;;;;;;;18.35;13.90;;;21.80;85.80;;;;;;5115837;28;20469;-13
2022/09/08 01:23:13;;;;;;;15.20;11.13;;;21.80;86.00;;;;;;5116037;28;20027;-14
2022/09/08 01:25:53;;;;;;;21.58;16.02;;;21.80;85.60;;;;;;5116126;28;20102;-13
2022/09/08 01:28:48;;;;;;;20.48;16.25;;;21.90;86.10;;;;;;5115670;28;20039;-13
2022/09/08 01:31:15;;;;;;;20.40;15.25;;;21.90;86.20;;;;;;5107300;28;20086;-13
2022/09/08 01:33:41;;;;;;;19.23;15.00;;;21.90;86.30;;;;;;5115531;28;20047;-13
2022/09/08 01:36:09;;;;;;;25.92;17.27;;;21.90;86.20;;;;;;5115673;28;20028;-13
2022/09/08 01:38:36;;;;;;;23.92;16.50;;;21.90;86.30;;;;;;5115872;28;20024;-15
2022/09/08 01:41:02;;;;;;;21.20;16.02;;;21.90;86.40;;;;;;5115320;28;20020;-14
2022/09/08 01:43:28;;;;;;;18.75;14.60;;;21.90;86.30;;;;;;5115650;28;20047;-14
2022/09/08 01:45:56;;;;;;;16.27;13.80;;;21.90;86.10;;;;;;5115692;28;20450;-14
2022/09/08 01:48:22;;;;;;;21.85;15.55;;;21.90;85.90;;;;;;5115330;28;20016;-13
2022/09/08 01:50:49;;;;;;;17.55;14.40;;;21.80;85.90;;;;;;5115146;28;20024;-15
2022/09/08 01:53:15;;;;;;;17.95;14.52;;;21.80;85.90;;;;;;5115199;28;20513;-14
2022/09/08 01:55:43;;;;;;;24.25;18.23;;;21.80;85.80;;;;;;5115455;28;20043;-13
2022/09/08 01:58:08;;;;;;;18.88;15.30;;;21.70;86.00;;;;;;5114940;28;20043;-14
2022/09/08 02:00:34;;;;;;;21.23;15.95;;;21.70;86.10;;;;;;5115395;28;20020;-16
2022/09/08 02:03:00;;;;;;;19.08;14.70;;;21.60;85.90;;;;;;5114855;28;20027;-14
2022/09/08 02:05:26;;;;;;;20.33;14.70;;;21.60;85.90;;;;;;5115020;28;20030;-15
2022/09/08 02:07:52;;;;;;;22.77;17.65;;;21.60;85.90;;;;;;5115303;28;20024;-14
2022/09/08 02:10:18;;;;;;;23.88;19.45;;;21.60;86.00;;;;;;5114680;28;20051;-15
2022/09/08 02:12:44;;;;;;;29.15;21.45;;;21.60;86.20;;;;;;5114859;28;20023;-15
2022/09/08 02:15:11;;;;;;;25.20;19.00;;;21.60;86.30;;;;;;5114750;28;20030;-15
2022/09/08 02:17:37;;;;;;;26.38;18.35;;;21.50;86.30;;;;;;5114990;28;20035;-14
2022/09/08 02:20:03;;;;;;;23.05;18.40;;;21.50;86.10;;;;;;5113277;28;20077;-14
2022/09/08 02:22:32;;;;;;;20.98;17.45;;;21.40;85.90;;;;;;5114613;28;20032;-16
2022/09/08 02:24:58;;;;;;;25.83;20.10;;;21.50;85.70;;;;;;5114719;28;20086;-15
2022/09/08 02:27:24;;;;;;;26.23;20.08;;;21.40;85.60;;;;;;5113397;28;20032;-14
2022/09/08 02:29:50;;;;;;;23.00;17.55;;;21.40;85.60;;;;;;5114498;28;20028;-14
2022/09/08 02:32:15;;;;;;;27.90;20.65;;;21.40;85.40;;;;;;5114455;28;20483;-14
2022/09/08 02:34:41;;;;;;;28.88;20.05;;;21.40;85.60;;;;;;5114424;28;20031;-13
2022/09/08 02:37:07;;;;;;;27.10;18.92;;;21.40;85.60;;;;;;5114252;28;20074;-14
2022/09/08 02:39:33;;;;;;;25.02;18.30;;;21.40;85.60;;;;;;5114382;28;20019;-13
2022/09/08 02:41:59;;;;;;;28.98;20.98;;;21.30;85.60;;;;;;5114480;28;20076;-13
2022/09/08 02:44:24;;;;;;;23.17;18.92;;;21.30;85.70;;;;;;5114095;28;20023;-15
2022/09/08 02:46:50;;;;;;;22.65;15.82;;;21.30;85.50;;;;;;5114283;28;20027;-15
2022/09/08 02:49:16;;;;;;;22.95;18.17;;;21.30;85.50;;;;;;5114126;28;20607;-14
2022/09/08 02:51:42;;;;;;;25.38;18.67;;;21.20;85.50;;;;;;5114509;28;20016;-13
2022/09/08 02:54:07;;;;;;;24.58;19.60;;;21.20;85.70;;;;;;5114397;28;20035;-15
2022/09/08 02:56:33;;;;;;;25.30;18.52;;;21.20;85.80;;;;;;5113949;28;20395;-14
2022/09/08 02:59:00;;;;;;;23.73;17.55;;;21.20;85.50;;;;;;5113984;28;20023;-14
2022/09/08 03:01:26;;;;;;;20.42;15.63;;;21.10;85.40;;;;;;5114410;28;20023;-15
2022/09/08 03:03:52;;;;;;;26.02;19.35;;;21.10;85.30;;;;;;5114288;28;20103;-14
2022/09/08 03:06:18;;;;;;;27.95;19.83;;;21.10;85.40;;;;;;5114178;28;20054;-12
2022/09/08 03:08:46;;;;;;;24.77;19.45;;;21.10;85.50;;;;;;5113792;28;20495;-12
2022/09/08 03:11:12;;;;;;;20.73;15.50;;;21.10;85.40;;;;;;5113635;28;20493;-14
2022/09/08 03:13:39;;;;;;;21.17;15.07;;;21.00;85.30;;;;;;5114116;28;20020;-13
2022/09/08 03:16:06;;;;;;;23.17;15.88;;;21.00;85.30;;;;;;5114072;28;20043;-14
2022/09/08 03:18:32;;;;;;;20.92;14.98;;;21.00;85.30;;;;;;5113950;28;20123;-13
2022/09/08 03:21:01;;;;;;;21.60;16.33;;;20.90;85.40;;;;;;5113507;28;20028;-15
2022/09/08 03:23:27;;;;;;;23.90;16.23;;;20.90;85.40;;;;;;5113975;28;20032;-14
2022/09/08 03:25:53;;;;;;;27.50;19.65;;;20.90;85.60;;;;;;5113643;28;20094;-13
2022/09/08 03:28:24;;;;;;;30.45;21.15;;;20.90;85.70;;;;;;5113503;28;20016;-14
2022/09/08 03:30:51;;;;;;;22.55;17.40;;;20.80;86.10;;;;;;5113469;28;20030;-13
2022/09/08 03:33:17;;;;;;;20.48;16.58;;;20.80;86.00;;;;;;5113139;28;20027;-14
2022/09/08 03:35:43;;;;;;;27.73;20.70;;;20.80;85.80;;;;;;5113748;28;20540;-13
2022/09/08 03:38:09;;;;;;;25.42;19.83;;;20.70;86.20;;;;;;5113721;28;20077;-14
2022/09/08 03:40:40;;;;;;;20.83;15.93;;;20.80;86.30;;;;;;5113656;28;20035;-14
2022/09/08 03:43:07;;;;;;;23.77;18.33;;;20.80;86.10;;;;;;5113185;28;20023;-15
2022/09/08 03:45:33;;;;;;;23.63;17.45;;;20.80;86.10;;;;;;5113459;28;20364;-15
2022/09/08 03:47:59;;;;;;;21.75;16.92;;;20.80;86.10;;;;;;5113637;28;20043;-14
2022/09/08 03:50:25;;;;;;;25.00;19.85;;;20.90;85.90;;;;;;5112151;28;20360;-14
2022/09/08 03:52:51;;;;;;;25.77;20.30;;;20.90;86.30;;;;;;5113133;28;20444;-13
2022/09/08 03:55:18;;;;;;;28.50;20.15;;;20.90;86.10;;;;;;5113320;28;20030;-15
2022/09/08 03:57:44;;;;;;;23.77;19.17;;;20.90;86.20;;;;;;5113244;28;20039;-13
2022/09/08 04:00:12;;;;;;;24.85;18.92;;;20.90;86.10;;;;;;5113274;28;20023;-14
2022/09/08 04:02:39;;;;;;;24.38;18.45;;;20.90;86.00;;;;;;5113606;28;20032;-13
2022/09/08 04:05:06;;;;;;;24.98;19.17;;;20.90;85.90;;;;;;5113311;28;20387;-15
2022/09/08 04:07:34;;;;;;;27.52;19.73;;;20.90;85.80;;;;;;5113561;28;20046;-16
2022/09/08 04:10:02;;;;;;;23.02;18.00;;;20.80;85.70;;;;;;5109046;28;20414;-13
2022/09/08 04:12:28;;;;;;;20.88;16.10;;;20.80;85.60;;;;;;5113183;28;20087;-14
2022/09/08 04:14:54;;;;;;;22.45;16.50;;;20.80;85.40;;;;;;5112970;28;20024;-14
2022/09/08 04:17:22;;;;;;;20.48;14.75;;;20.80;85.30;;;;;;5113348;28;20040;-14
2022/09/08 04:19:50;;;;;;;20.55;15.80;;;20.90;85.20;;;;;;5113447;28;20491;-14
2022/09/08 04:22:17;;;;;;;19.75;14.55;;;20.90;85.20;;;;;;5113209;28;20035;-14
2022/09/08 04:24:44;;;;;;;21.30;15.05;;;20.90;85.10;;;;;;5113368;28;20047;-14
2022/09/08 04:27:10;;;;;;;19.88;14.57;;;20.90;85.00;;;;;;5112791;28;20028;-14
2022/09/08 04:29:36;;;;;;;26.27;18.05;;;20.90;84.80;;;;;;5113019;28;20018;-14
2022/09/08 04:32:03;;;;;;;28.15;18.83;;;21.00;84.60;;;;;;5113422;28;20034;-14
2022/09/08 04:34:28;;;;;;;20.13;15.60;;;21.00;85.10;;;;;;5112906;28;20031;-16
2022/09/08 04:36:55;;;;;;;21.85;17.73;;;21.00;85.00;;;;;;5112785;28;20092;-15
2022/09/08 04:39:21;;;;;;;24.63;19.02;;;21.10;85.10;;;;;;5113211;28;20074;-14
2022/09/08 04:41:47;;;;;;;27.23;19.60;;;21.00;85.20;;;;;;5113214;28;20028;-14
2022/09/08 04:44:13;;;;;;;22.67;17.75;;;21.00;85.40;;;;;;5115452;28;20046;-14
2022/09/08 04:46:39;;;;;;;27.30;21.23;;;21.00;85.20;;;;;;5116852;28;20452;-15
2022/09/08 04:49:05;;;;;;;28.45;20.17;;;21.10;85.60;;;;;;5116247;28;20374;-14
2022/09/08 04:51:32;;;;;;;29.58;20.55;;;21.10;85.50;;;;;;5116727;28;20072;-13
2022/09/08 04:54:00;;;;;;;26.50;19.17;;;21.10;85.70;;;;;;5116403;28;20028;-15
2022/09/08 04:56:28;;;;;;;24.88;19.40;;;21.10;85.40;;;;;;5114952;28;20072;-15
2022/09/08 04:58:55;;;;;;;31.80;20.55;;;21.10;85.40;;;;;;5115936;28;20020;-15
2022/09/08 05:01:24;;;;;;;26.40;20.58;;;21.10;85.30;;;;;;5115003;28;20027;-14
2022/09/08 05:03:51;;;;;;;25.48;18.83;;;21.10;85.20;;;;;;5116694;28;20023;-14
2022/09/08 05:06:17;;;;;;;28.92;19.15;;;21.10;85.00;;;;;;5116515;28;20088;-14
2022/09/08 05:08:46;;;;;;;26.77;18.95;;;21.10;85.00;;;;;;5116136;28;20456;-14
2022/09/08 05:11:13;;;;;;;24.63;18.77;;;21.10;84.90;;;;;;5115833;28;20027;-14
2022/09/08 05:13:39;;;;;;;22.50;17.00;;;21.20;84.80;;;;;;5115957;28;20028;-13
2022/09/08 05:16:11;;;;;;;25.35;16.58;;;21.20;84.60;;;;;;5116315;28;20557;-13
2022/09/08 05:18:37;;;;;;;22.00;15.27;;;21.20;84.50;;;;;;5115937;28;20061;-13
2022/09/08 05:21:04;;;;;;;18.42;13.80;;;21.20;84.40;;;;;;5115782;28;20128;-14
2022/09/08 05:23:30;;;;;;;22.67;16.35;;;21.30;84.20;;;;;;5116132;28;20047;-12
2022/09/08 05:25:59;;;;;;;17.42;13.80;;;21.30;84.10;;;;;;5116115;28;20475;-13
2022/09/08 05:28:27;;;;;;;19.73;14.45;;;21.30;84.10;;;;;;5115888;28;20592;-13
2022/09/08 05:30:52;;;;;;;19.70;14.85;;;21.40;83.90;;;;;;5115557;28;20072;-13
2022/09/08 05:33:19;;;;;;;17.77;14.48;;;21.40;83.80;;;;;;5115638;28;20023;-13
2022/09/08 05:35:45;;;;;;;16.88;13.55;;;21.40;83.70;;;;;;5115591;28;20027;-14
2022/09/08 05:38:11;;;;;;;21.75;13.35;;;21.40;83.70;;;;;;5115795;28;20032;-15
2022/09/08 05:40:37;;;;;;;18.40;14.35;;;21.50;83.50;;;;;;5115816;28;20027;-14
2022/09/08 05:43:04;;;;;;;16.17;13.15;;;21.50;83.50;;;;;;5115270;28;20545;-14
2022/09/08 05:45:30;;;;;;;15.57;11.98;;;21.50;83.30;;;;;;5114108;28;20023;-15
2022/09/08 05:47:56;;;;;;;17.00;12.90;;;21.50;83.30;;;;;;5115664;28;20050;-14
2022/09/08 05:50:21;;;;;;;15.52;10.93;;;21.60;83.10;;;;;;5115293;28;20043;-14
2022/09/08 05:52:47;;;;;;;18.88;13.60;;;21.60;82.90;;;;;;5115570;28;20024;-14
2022/09/08 05:55:14;;;;;;;16.08;11.70;;;21.60;82.90;;;;;;5114629;28;20020;-14
2022/09/08 05:57:40;;;;;;;14.45;10.57;;;21.70;82.80;;;;;;5115665;28;20465;-14
2022/09/08 06:00:08;;;;;;;16.17;12.00;;;21.70;82.60;;;;;;5115415;28;20034;-15
2022/09/08 06:02:34;;;;;;;16.08;10.30;;;21.70;82.70;;;;;;5115067;28;20031;-13
2022/09/08 06:05:00;;;;;;;18.25;10.82;;;21.70;82.50;;;;;;5114888;28;20030;-16
2022/09/08 06:07:26;;;;;;;14.27;9.80;;;21.70;82.30;;;;;;5115185;28;20024;-13
2022/09/08 06:09:52;;;;;;;15.77;10.55;;;21.60;82.20;;;;;;5116262;27;20048;-15
2022/09/08 06:12:20;;;;;;;14.13;10.15;;;21.60;82.40;;;;;;5115186;28;20124;-12
2022/09/08 06:14:45;;;;;;;18.63;12.93;;;21.50;82.60;;;;;;5115025;28;20471;-16
2022/09/08 06:17:12;;;;;;;17.80;11.45;;;21.50;83.10;;;;;;5114811;28;20063;-16
2022/09/08 06:19:38;;;;;;;15.43;10.68;;;21.40;83.20;;;;;;5114709;28;20491;-14
2022/09/08 06:22:04;;;;;;;17.35;11.20;;;21.40;83.30;;;;;;5114858;28;20073;-16
2022/09/08 06:24:30;;;;;;;19.60;9.98;;;21.40;83.10;;;;;;5114929;28;20039;-14
2022/09/08 06:27:06;;;;;;;12.43;8.55;;;21.40;83.00;;;;;;5130328;27;20051;-14
2022/09/08 06:29:58;;;;;;;12.77;9.68;;;21.40;82.90;;;;;;5114804;28;20438;-15
2022/09/08 06:32:30;;;;;;;11.57;7.40;;;21.40;82.70;;;;;;5114856;28;20061;-12
2022/09/08 06:35:06;;;;;;;11.00;6.85;;;21.40;82.60;;;;;;5114571;28;20020;-14
2022/09/08 06:37:49;;;;;;;12.80;7.82;;;21.40;82.50;;;;;;5114337;28;20046;-14
2022/09/08 06:40:33;;;;;;;10.10;6.97;;;21.50;82.10;;;;;;5114803;28;20035;-14
2022/09/08 06:43:15;;;;;;;9.80;6.22;;;21.60;81.30;;;;;;5114441;28;20020;-14
2022/09/08 06:45:53;;;;;;;8.10;5.30;;;21.60;80.40;;;;;;5114265;28;20019;-14
2022/09/08 06:48:35;;;;;;;8.35;5.50;;;21.40;79.50;;;;;;5114463;28;20053;-14
2022/09/08 06:51:20;;;;;;;6.97;5.05;;;21.30;79.80;;;;;;5114049;28;20031;-14
2022/09/08 06:54:09;;;;;;;7.32;4.95;;;21.40;79.60;;;;;;5114461;28;20031;-14
2022/09/08 06:57:06;;;;;;;10.20;4.90;;;21.40;79.10;;;;;;5114149;28;20058;-15
2022/09/08 07:00:02;;;;;;;10.88;5.28;;;21.40;79.30;;;;;;5113900;28;20482;-14
2022/09/08 07:03:02;;;;;;;8.88;5.10;;;21.40;79.30;;;;;;5114285;28;20028;-14
2022/09/08 07:05:49;;;;;;;9.60;5.40;;;21.40;78.80;;;;;;5114431;28;20103;-14
2022/09/08 07:08:36;;;;;;;9.18;5.32;;;21.30;79.60;;;;;;5113120;28;20143;-13
2022/09/08 07:11:20;;;;;;;6.40;4.90;;;21.30;79.50;;;;;;5113512;28;20052;-13
2022/09/08 07:13:52;;;;;;;;;;;21.30;79.00;;;;;;5114140;28;20119;-13
2022/09/08 07:16:45;;;;;;;9.18;5.25;;;21.40;79.30;;;;;;5113835;28;20419;-14
2022/09/08 07:19:13;;;;;;;9.93;5.22;;;21.50;79.90;;;;;;5113594;28;20038;-12
2022/09/08 07:22:10;;;;;;;9.70;5.10;;;21.60;79.20;;;;;;5113993;28;20032;-15
2022/09/08 07:24:41;;;;;;;7.55;5.25;;;21.90;79.00;;;;;;5172801;22;20047;-17
2022/09/08 07:27:13;;;;;;;11.32;5.30;;;22.10;78.00;;;;;;5093492;28;20332;-18
2022/09/08 07:29:45;;;;;;;7.88;4.90;;;22.30;78.00;;;;;;5093672;28;20050;-17
2022/09/08 07:32:20;;;;;;;8.07;5.10;;;22.50;77.10;;;;;;5093468;28;20100;-19
2022/09/08 07:35:00;;;;;;;12.13;4.70;;;22.60;76.00;;;;;;5093590;28;20031;-18
2022/09/08 07:37:35;;;;;;;7.32;4.82;;;22.50;76.20;;;;;;5091874;28;20059;-17
2022/09/08 07:40:41;;;;;;;8.52;5.05;;;22.30;77.00;;;;;;5093489;28;20081;-18
2022/09/08 07:43:14;;;;;;;8.00;5.47;;;22.00;77.60;;;;;;5092318;28;20105;-17
2022/09/08 07:45:58;;;;;;;7.28;5.20;;;22.00;78.20;;;;;;5093133;28;20073;-18
2022/09/08 07:48:48;;;;;;;7.93;5.03;;;21.90;78.40;;;;;;5093441;28;20028;-17
2022/09/08 07:51:16;;;;;;;8.50;5.32;;;21.80;78.90;;;;;;5091873;28;20398;-18
2022/09/08 07:53:45;;;;;;;8.80;4.97;;;21.90;79.20;;;;;;5093597;28;20028;-18
2022/09/08 07:56:30;;;;;;;8.85;5.68;;;21.90;79.30;;;;;;5093322;28;20032;-17
2022/09/08 07:59:11;;;;;;;10.05;5.13;;;21.90;79.50;;;;;;5092733;28;20047;-17
2022/09/08 08:01:59;;;;;;;8.30;5.03;;;21.90;79.20;;;;;;5093442;28;20035;-18
2022/09/08 08:04:50;;;;;;;9.15;5.40;;;21.90;79.10;;;;;;5093251;28;20104;-17
2022/09/08 08:07:33;;;;;;;8.48;4.80;;;22.00;78.80;;;;;;5093657;28;20122;-18
2022/09/08 08:10:22;;;;;;;40.30;7.45;;;21.90;78.70;;;;;;5092889;28;20048;-21
2022/09/08 08:12:51;;;;;;;29.63;9.63;;;21.40;84.50;;;;;;5092884;28;20382;-17
2022/09/08 08:15:26;;;;;;;19.85;8.98;;;20.40;87.60;;;;;;5093094;28;20036;-18
2022/09/08 08:18:04;;;;;;;15.82;8.35;;;20.10;89.00;;;;;;5093396;28;20085;-21
2022/09/08 08:20:44;;;;;;;13.07;7.93;;;19.90;88.50;;;;;;5097027;28;20043;-19
2022/09/08 08:23:19;;;;;;;10.98;7.18;;;19.90;89.80;;;;;;5096687;28;20123;-21
2022/09/08 08:26:03;;;;;;;14.30;7.88;;;19.70;89.80;;;;;;5096792;28;20051;-19
2022/09/08 08:28:35;;;;;;;11.98;7.40;;;19.60;90.00;;;;;;5096817;28;20443;-20
2022/09/08 08:31:48;;;;;;;14.00;7.18;;;19.50;90.20;;;;;;5096438;28;20383;-20
2022/09/08 08:34:25;;;;;;;13.75;8.52;;;19.50;90.10;;;;;;5024416;28;20193;-20
2022/09/08 08:36:53;;;;;;;14.98;9.65;;;19.40;90.40;;;;;;5096439;28;20035;-20
2022/09/08 08:39:22;;;;;;;14.80;9.48;;;19.40;90.60;;;;;;5096194;28;20028;-18
2022/09/08 08:42:17;;;;;;;13.98;7.68;;;19.50;90.60;;;;;;5096308;28;20028;-20
2022/09/08 08:44:58;;;;;;;16.02;8.65;;;19.50;90.40;;;;;;5096698;28;20028;-18
2022/09/08 08:47:55;;;;;;;13.32;7.78;;;19.60;90.30;;;;;;5096217;28;20137;-19
2022/09/08 08:50:39;;;;;;;14.35;7.60;;;19.70;89.90;;;;;;5096108;28;20066;-19
2022/09/08 08:53:30;;;;;;;10.32;6.82;;;19.70;89.70;;;;;;5095823;28;20040;-20
2022/09/08 08:56:06;;;;;;;10.60;7.03;;;19.70;89.80;;;;;;5095982;28;20364;-19
2022/09/08 08:58:56;;;;;;;13.85;8.50;;;19.70;89.90;;;;;;5096271;28;20036;-18
2022/09/08 09:01:36;;;;;;;13.65;8.75;;;19.80;90.20;;;;;;5095995;28;20035;-19
2022/09/08 09:04:20;;;;;;;19.33;11.20;;;19.80;90.40;;;;;;5096238;28;20056;-18
2022/09/08 09:06:55;;;;;;;16.58;10.48;;;19.80;90.70;;;;;;5095745;28;20119;-18
2022/09/08 09:09:33;;;;;;;16.20;9.88;;;19.90;90.70;;;;;;5095703;28;20039;-19
2022/09/08 09:12:05;;;;;;;16.70;10.45;;;19.90;90.20;;;;;;5095765;28;20059;-18
2022/09/08 09:15:05;;;;;;;14.52;9.60;;;20.10;90.30;;;;;;5095731;28;20017;-18
2022/09/08 09:17:57;;;;;;;12.80;8.82;;;20.20;90.00;;;;;;5095647;28;20077;-18
2022/09/08 09:20:51;;;;;;;13.60;8.73;;;20.40;90.30;;;;;;5095989;28;20032;-20
2022/09/08 09:23:43;;;;;;;13.73;9.80;;;20.70;90.90;;;;;;5154774;22;20050;-14
2022/09/08 09:26:12;;;;;;;18.65;11.02;;;20.90;90.60;;;;;;5033340;28;20116;-15
2022/09/08 09:28:58;;;;;;;12.77;8.35;;;21.20;91.00;;;;;;5033291;28;20034;-14
2022/09/08 09:31:42;;;;;;;12.02;8.02;;;21.50;90.50;;;;;;5032626;28;20043;-14
2022/09/08 09:34:19;;;;;;;10.85;8.10;;;21.80;90.20;;;;;;5033107;28;20112;-14
2022/09/08 09:37:05;;;;;;;12.20;7.68;;;22.00;89.50;;;;;;5033186;28;20033;-14
2022/09/08 09:40:09;;;;;;;10.00;8.00;;;22.30;89.20;;;;;;5032970;28;20108;-14
2022/09/08 09:42:37;;;;;;;12.90;7.47;;;22.50;88.90;;;;;;5005351;28;20033;-14
2022/09/08 09:45:25;;;;;;;11.27;7.13;;;22.90;85.10;;;;;;5032816;28;20489;-13
2022/09/08 09:48:15;;;;;;;9.55;6.60;;;23.10;85.90;;;;;;5032848;28;20033;-14
2022/09/08 09:50:56;;;;;;;8.05;6.10;;;23.10;84.90;;;;;;5032967;28;20171;-14
2022/09/08 09:53:40;;;;;;;8.65;5.78;;;23.00;83.40;;;;;;5032598;28;20116;-14
2022/09/08 09:56:19;;;;;;;8.90;5.78;;;23.10;84.70;;;;;;5032870;28;20056;-14
2022/09/08 09:59:05;;;;;;;7.35;5.32;;;23.40;83.00;;;;;;5032667;28;20042;-14
2022/09/08 10:02:08;;;;;;;8.15;5.40;;;23.60;82.50;;;;;;5033035;28;20592;-14
2022/09/08 10:04:50;;;;;;;9.60;5.63;;;23.70;80.30;;;;;;5081905;28;20036;-14
2022/09/08 10:07:22;;;;;;;6.75;5.07;;;23.90;80.30;;;;;;5115312;28;20114;-14
2022/09/08 10:09:51;;;;;;;10.13;6.47;;;23.90;79.40;;;;;;5115203;28;20051;-14
2022/09/08 10:12:30;;;;;;;7.80;5.78;;;23.90;77.70;;;;;;5114965;28;20031;-14
2022/09/08 10:15:15;;;;;;;9.85;5.78;;;24.00;79.40;;;;;;5114967;28;20058;-14
2022/09/08 10:18:01;;;;;;;10.52;5.75;;;24.20;79.60;;;;;;5114884;28;20116;-14
2022/09/08 10:21:04;;;;;;;9.82;5.53;;;24.50;78.30;;;;;;5115069;28;20451;-15
2022/09/08 10:23:41;;;;;;;11.77;5.88;;;24.60;74.40;;;;;;5116716;27;20058;-14
2022/09/08 10:26:07;;;;;;;8.05;5.65;;;24.60;75.60;;;;;;5114741;28;20068;-14
2022/09/08 10:29:02;;;;;;;10.15;6.45;;;24.60;76.00;;;;;;5114643;28;20027;-14
2022/09/08 10:31:28;;;;;;;10.43;6.80;;;24.70;75.70;;;;;;5097183;28;20122;-14
2022/09/08 10:34:21;;;;;;;8.57;5.63;;;24.70;73.10;;;;;;5114884;28;20085;-14
2022/09/08 10:36:50;;;;;;;7.60;5.35;;;24.90;75.70;;;;;;5114519;28;20474;-14
2022/09/08 10:39:28;;;;;;;8.30;5.65;;;25.30;75.80;;;;;;5114604;28;20035;-14
2022/09/08 10:42:24;;;;;;;8.38;5.40;;;25.50;74.30;;;;;;5114242;28;20028;-14
2022/09/08 10:44:56;;;;;;;9.80;5.57;;;25.90;73.20;;;;;;5113008;28;20033;-14
2022/09/08 10:47:47;;;;;;;9.27;6.00;;;26.20;71.60;;;;;;5114226;28;20390;-14
2022/09/08 10:50:19;;;;;;;7.47;5.68;;;26.40;70.80;;;;;;5114250;28;20077;-14
2022/09/08 10:53:22;;;;;;;8.82;6.05;;;26.50;70.00;;;;;;5114207;28;20023;-14
2022/09/08 10:56:21;;;;;;;7.55;5.07;;;26.60;68.20;;;;;;5114432;28;20054;-14
2022/09/08 10:59:21;;;;;;;8.15;5.30;;;26.70;68.60;;;;;;5098748;28;20039;-14
2022/09/08 11:02:08;;;;;;;9.57;4.78;;;26.80;67.60;;;;;;5114361;28;20118;-15
2022/09/08 11:04:57;;;;;;;5.75;4.47;;;26.80;68.00;;;;;;5114042;28;20024;-14
2022/09/08 11:07:52;;;;;;;8.88;4.78;;;27.00;67.30;;;;;;5114179;28;20081;-15
2022/09/08 11:10:56;;;;;;;8.68;5.38;;;27.40;64.20;;;;;;5114163;28;20039;-15
2022/09/08 11:13:59;;;;;;;7.60;4.80;;;27.50;64.90;;;;;;5031431;28;20035;-14
2022/09/08 11:17:03;;;;;;;9.05;5.63;;;27.80;63.50;;;;;;5031339;28;20061;-14
2022/09/08 11:19:37;;;;;;;8.15;5.10;;;28.30;64.50;;;;;;5031613;28;20468;-15
2022/09/08 11:22:08;;;;;;;8.80;5.60;;;28.90;62.00;;;;;;5031285;28;20038;-14
2022/09/08 11:25:04;;;;;;;7.10;4.60;;;29.40;61.30;;;;;;5030972;28;20073;-14
2022/09/08 11:27:49;;;;;;;8.63;5.25;;;29.80;58.70;;;;;;5031548;28;20037;-15
2022/09/08 11:30:27;;;;;;;8.98;5.07;;;30.00;59.70;;;;;;5031169;28;20036;-14
2022/09/08 11:33:28;;;;;;;6.93;4.65;;;30.50;58.90;;;;;;5031133;28;20025;-14
2022/09/08 11:36:08;;;;;;;7.07;4.55;;;31.00;54.40;;;;;;5031094;28;20052;-14
2022/09/08 11:39:04;;;;;;;6.88;4.35;;;31.40;54.90;;;;;;5030957;28;20041;-14
2022/09/08 11:41:54;;;;;;;7.88;4.70;;;31.70;55.00;;;;;;5031578;28;20105;-14
2022/09/08 11:44:29;;;;;;;7.47;3.97;;;32.00;54.30;;;;;;5031181;28;20029;-14
2022/09/08 11:47:29;;;;;;;6.20;3.75;;;32.30;53.80;;;;;;5057075;28;20035;-15
2022/09/08 11:50:01;;;;;;;7.43;4.30;;;32.60;48.60;;;;;;5112185;28;20036;-15
2022/09/08 11:53:14;;;;;;;5.43;4.25;;;32.90;50.90;;;;;;5113640;28;20595;-14
2022/09/08 11:55:43;;;;;;;4.77;3.80;;;32.90;50.40;;;;;;5093186;28;20035;-15
2022/09/08 11:58:47;;;;;;;7.30;4.05;;;33.00;51.40;;;;;;5117528;28;20774;-14
2022/09/08 12:01:22;;;;;;;7.80;4.03;;;32.80;50.30;;;;;;5117523;28;20023;-15
2022/09/08 12:04:06;;;;;;;5.18;3.50;;;33.00;51.60;;;;;;5117802;28;20477;-14
2022/09/08 12:06:41;;;;;;;6.05;3.40;;;33.40;47.60;;;;;;5117605;28;20035;-14
2022/09/08 12:09:16;;;;;;;5.13;3.30;;;33.80;48.70;;;;;;5117121;28;20509;-14
2022/09/08 12:12:13;;;;;;;4.40;3.00;;;33.80;46.00;;;;;;5117557;28;20108;-15
2022/09/08 12:14:48;;;;;;;6.03;3.30;;;34.00;47.00;;;;;;5117461;28;20032;-14
2022/09/08 12:17:32;;;;;;;5.35;3.35;;;34.40;47.30;;;;;;5117733;28;20457;-15
2022/09/08 12:20:32;;;;;;;5.72;3.05;;;34.60;45.70;;;;;;5117505;28;20030;-16
2022/09/08 12:23:09;;;;;;;5.35;3.00;;;34.60;45.90;;;;;;5116884;28;20030;-15
2022/09/08 12:26:05;;;;;;;4.80;3.30;;;34.70;44.20;;;;;;5117414;28;20119;-15
2022/09/08 12:28:59;;;;;;;3.78;2.88;;;34.90;43.40;;;;;;5117084;28;20443;-15
2022/09/08 12:31:46;;;;;;;6.13;3.17;;;35.20;43.20;;;;;;5117233;28;20031;-15
2022/09/08 12:34:20;;;;;;;5.60;3.15;;;35.60;43.70;;;;;;5117231;28;20027;-15
2022/09/08 12:36:53;;;;;;;4.65;3.17;;;35.40;44.10;;;;;;5117127;28;20037;-15
2022/09/08 12:40:03;;;;;;;3.78;3.05;;;35.20;44.90;;;;;;5116688;28;20439;-15
2022/09/08 12:43:06;;;;;;;6.40;3.10;;;35.00;44.00;;;;;;5017573;28;20072;-15
2022/09/08 12:45:51;;;;;;;6.00;3.70;;;35.20;43.80;;;;;;5034020;28;20034;-14
2022/09/08 12:48:40;;;;;;;4.90;3.30;;;34.70;44.90;;;;;;5033884;28;20041;-14
2022/09/08 12:51:35;;;;;;;4.50;3.08;;;34.10;45.10;;;;;;5033870;28;20032;-15
2022/09/08 12:54:30;;;;;;;6.32;3.80;;;33.90;47.50;;;;;;5034149;28;20048;-14
2022/09/08 12:57:06;;;;;;;6.03;3.47;;;33.30;48.30;;;;;;5033760;28;20029;-14
2022/09/08 12:59:44;;;;;;;7.18;3.60;;;32.60;48.80;;;;;;5034249;28;20033;-15
2022/09/08 13:02:49;;;;;;;4.57;3.40;;;32.00;51.40;;;;;;5033743;28;20029;-15
2022/09/08 13:05:36;;;;;;;6.15;3.80;;;31.80;50.80;;;;;;5011508;28;20029;-14
2022/09/08 13:08:25;;;;;;;6.20;4.03;;;31.50;52.00;;;;;;5033428;28;20388;-15
2022/09/08 13:11:01;;;;;;;5.95;3.78;;;30.70;52.80;;;;;;5033390;28;20034;-14
2022/09/08 13:13:37;;;;;;;7.53;3.60;;;30.20;55.00;;;;;;5085318;28;20075;-15
2022/09/08 13:16:03;;;;;;;7.13;3.90;;;29.90;54.80;;;;;;5116341;28;20026;-15
2022/09/08 13:18:57;;;;;;;3.97;3.58;;;29.40;55.10;;;;;;5116232;28;20024;-15
2022/09/08 13:21:39;;;;;;;4.50;3.53;;;29.00;56.30;;;;;;5116259;28;20028;-15
2022/09/08 13:24:14;;;;;;;5.63;3.47;;;29.60;55.30;;;;;;5115604;28;20070;-15
2022/09/08 13:27:13;;;;;;;6.28;3.30;;;30.00;54.00;;;;;;5115842;28;20072;-15